Mateo Rubio

Scout - Mallorca
19 Aug 2027
Donnerstag
Verarbeitung

Persönlichkeit

Anpassungsfähigkeit (9) Ehrgeiz (8) Kontroverse (9) Loyalität (9) Druck (1) Professionalität (8) Fairness (3) Temperament (19)

Profil

Trainerstil Demokratisch
Lizenz Nationale A
Entschlossenheit 8
Menschenführung 5
Motivation 7
Disziplin 11
Arbeitszufriedenheit
100%
Ermüdung
0%
Rolle Scout
Gehalt 81.8K p/W
Vertrag 14.03.2028

Leistung

Verhalten Gut
Trainingseffektivität
46%
Spielerentwicklung
50%
Verletzungsprävention
55%
Taktische Umsetzung
40%

Letzte Ereignisse

Spieler begutachtet jetzt
Nahm an einer Scouting-Besprechung teil jetzt
Empfahl ein Transferziel jetzt
Nahm an einer Scouting-Besprechung teil 7T her
Empfahl ein Transferziel 7T her
Empfahl ein Transferziel 7T her
Geburtstag 7T her
Empfahl ein Transferziel 14T her

Aktuell beobachtet

251
Spieler Verein Status Fähigkeit Vertrauen Beobachtet Zuletzt beobachtet Letzte Stimme
Davide Bartesaghi AC Milan Aktiv 133 / 142 40% 3 16.08.2027 -
Darryl Bakola Padova Verhandlung 114 / 130 40% 1 16.08.2027 -
Mirza Ćatović VfB Stuttgart Aktiv 121 / 123 40% 1 16.08.2027 -
Julen Agirrezabala Racing Santander Aktiv 143 / 152 40% 4 12.07.2027 -
Luke McGee Tranmere Rovers Aktiv 104 / 99 40% 1 12.07.2027 -
Matz Sels Nottingham Forest Aktiv 136 / 143 40% 1 12.07.2027 -
Riley Owen Trento Aktiv 108 / 112 40% 2 14.06.2027 -
Toni Tamarit Alverca Aktiv 113 / 121 40% 2 14.06.2027 -
Ismail Al Suwaidi Al Fujairah Verhandlung 132 / 120 40% 1 14.06.2027 -
Samu Aghehowa AS Roma Verhandlung 148 / 153 95% 1 01.06.2027 -
Stanislav Agkatsev Sunderland Verhandlung 132 / 133 66% 1 01.06.2027 -
Andreas Trimmel Red Bull Salzburg Aktiv 131 / 131 60% 1 01.06.2027 -
Batista Mendy Trabzonspor Aktiv 141 / 141 68% 1 01.06.2027 Befürworten
Samuel Lino Flamengo Verloren 138 / 138 66% 1 01.06.2027 -
Gabri Veiga Feyenoord Verhandlung 147 / 149 69% 1 01.06.2027 -
Soungoutou Magassa West Ham United Aktiv 132 / 134 40% 2 30.05.2027 -
Adrià Altimira Deportivo La Coruña Aktiv 129 / 131 40% 2 30.05.2027 -
Lucas Da Cunha Como Aktiv 143 / 138 40% 1 30.05.2027 -
Omar El Hilali Espanyol Aktiv 154 / 152 40% 6 29.05.2027 -
Hector Ramirez Newcastle United Aktiv 155 / 150 40% 8 29.05.2027 -
Jaydee Canvot Crystal Palace Aktiv 136 / 141 40% 2 29.05.2027 -
Dylan Lawlor Cardiff City Aktiv 112 / 115 40% 3 29.05.2027 -
Adam Wharton Crystal Palace Aktiv 151 / 161 40% 4 28.05.2027 -
Ousmane Diomande Nottingham Forest Aktiv 158 / 162 40% 2 28.05.2027 -
Warren Zaïre-Emery Paris Saint-Germain Aktiv 161 / 158 40% 4 27.05.2027 -
Fran García Betis Aktiv 147 / 148 40% 2 27.05.2027 -
Caleb Yirenkyi Coventry City Aktiv 136 / 142 40% 3 27.05.2027 -
Tiago Djaló Besiktas Aktiv 124 / 132 40% 1 27.05.2027 -
Leonardo Mendicino Bari Aktiv 108 / 118 40% 1 27.05.2027 -
Leo Castledine Middlesbrough Aktiv 130 / 133 40% 6 26.05.2027 -
Luke Baartman ES Mostaganem Aktiv 95 / 114 40% 3 26.05.2027 -
Mathis Jangeal Famalicao Aktiv 94 / 118 40% 2 26.05.2027 -
Amadou Onana Aston Villa Aktiv 160 / 161 40% 3 26.05.2027 -
Urko González Espanyol Aktiv 141 / 137 40% 2 26.05.2027 -
Assane Diao Lazio Aktiv 150 / 143 40% 7 25.05.2027 -
Stefanos Tzimas Brighton Aktiv 138 / 147 40% 1 25.05.2027 -
Yuval Ranon Vitesse Aktiv 92 / 96 40% 1 25.05.2027 -
Pablo Ramón Racing Santander Aktiv 142 / 128 40% 5 23.05.2027 -
Kike Salas Sevilla Aktiv 146 / 150 40% 3 23.05.2027 -
Florentino Luís Ipswich Town Aktiv 142 / 142 40% 1 23.05.2027 -
Kauã Elias Anderlecht Aktiv 134 / 142 40% 2 21.05.2027 -
Alessandro Buongiorno Sassuolo Aktiv 161 / 155 40% 5 21.05.2027 -
Kelian Baruti Liamba Estoril Praia Aktiv 99 / 98 40% 2 21.05.2027 -
Amaury Morales Pumas UNAM Aktiv 102 / 120 40% 1 21.05.2027 -
Jarrad Branthwaite Everton Aktiv 152 / 158 40% 2 20.05.2027 -
Javi Rodríguez Celta Aktiv 155 / 148 40% 2 20.05.2027 -
James Garner Everton Aktiv 150 / 147 40% 2 19.05.2027 -
Jake O'Brien Everton Aktiv 152 / 144 40% 3 19.05.2027 -
José Ángel Carmona Sevilla Aktiv 141 / 143 40% 4 19.05.2027 -
Ben Ahmed Kohili Paradou Aktiv 113 / 96 40% 2 18.05.2027 -
Tiziano Dornell Danubio Aktiv 112 / 111 40% 2 18.05.2027 -
Matvii Ponomarenko Dynamo Kyiv Aktiv 112 / 120 40% 1 18.05.2027 -
Adrien Truffert Bournemouth Aktiv 150 / 145 40% 2 16.05.2027 -
Daijiro Chirino Almería Aktiv 128 / 123 40% 1 16.05.2027 -
Deivid Washington RC Strasbourg Aktiv 118 / 115 40% 2 15.05.2027 -
Agustín Ruberto River Plate Aktiv 123 / 128 40% 2 15.05.2027 -
Curtis Jones Inter Aktiv 155 / 161 40% 3 15.05.2027 -
Nico González Newcastle United Aktiv 161 / 159 40% 7 13.05.2027 -
Carlos Romero Villarreal Aktiv 148 / 145 40% 3 12.05.2027 -
Tyrell Malacia Monaco Aktiv 137 / 138 40% 3 12.05.2027 -
Tommaso Pobega Bologna Aktiv 144 / 139 40% 1 12.05.2027 -
Johan Manzambi Newcastle United Aktiv 138 / 139 40% 1 12.05.2027 -
Mats Wieffer Brighton Aktiv 144 / 152 40% 3 11.05.2027 -
José Pachuca Puebla Aktiv 112 / 111 40% 3 11.05.2027 -
Manu Koné AS Roma Aktiv 161 / 158 40% 2 11.05.2027 -
Amadou Niang Al Ain Aktiv 111 / 108 40% 1 11.05.2027 -
Izan Merino Málaga Aktiv 123 / 122 40% 1 11.05.2027 -
Guille Rosas Gijón Aktiv 132 / 135 40% 2 10.05.2027 -
Nicolò Rovella Lazio Aktiv 155 / 154 40% 1 10.05.2027 -
Kazunari Kita Real Sociedad Aktiv 96 / 105 67% 4 09.05.2027 -
Khalis Merah Toulouse FC Aktiv 117 / 123 40% 3 09.05.2027 -
Yehor Yarmoliuk Brentford Aktiv 153 / 155 40% 4 08.05.2027 -
Lucien Agoumé Sevilla Aktiv 148 / 150 40% 2 07.05.2027 -
Jesús Vázquez Valencia Aktiv 138 / 144 40% 2 07.05.2027 -
Christ Inao Oulaï Fiorentina Aktiv 140 / 143 40% 3 06.05.2027 -
João Teixeira Porto Aktiv 109 / 119 40% 1 06.05.2027 -
Marc Bernal Real Sociedad Aktiv 145 / 161 40% 1 06.05.2027 -
Richard Ledezma Guadalajara Aktiv 141 / 147 40% 5 05.05.2027 -
Víctor Guzmán Sporting CP Aktiv 98 / 94 40% 6 05.05.2027 -
João Simões Sporting CP Aktiv 126 / 131 40% 2 05.05.2027 -
Óscar Mingueza Crystal Palace Aktiv 149 / 148 40% 4 05.05.2027 -
Flavien-Enzo Boyomo Osasuna Aktiv 158 / 156 40% 2 05.05.2027 -
Lwanda Mbanjwa Maritzburg United Aktiv 87 / 96 40% 1 05.05.2027 -
Matías Gómez Granada Aktiv 105 / 125 40% 3 03.05.2027 -
Quinten Timber Crystal Palace Aktiv 152 / 153 40% 3 03.05.2027 -
Antonio Blanco Alavés Aktiv 146 / 141 40% 2 03.05.2027 -
Josh King Chelsea Aktiv 132 / 149 40% 2 03.05.2027 -
Pol Lozano Espanyol Aktiv 137 / 147 40% 2 02.05.2027 -
Samuel Lucero Defensa y Justicia Aktiv 109 / 110 40% 1 02.05.2027 -
Thulani Erasmus Platinum Stars Aktiv 112 / 114 40% 3 30.04.2027 -
Miloš Jovičić Zabbar St. Patrick Aktiv 88 / 89 40% 2 30.04.2027 -
Sven Botman Newcastle United Aktiv 154 / 165 40% 1 30.04.2027 -
Alexey Batrakov Fenerbahce Aktiv 135 / 137 40% 1 28.04.2027 -
Anestis Mythou PAOK Aktiv 94 / 97 40% 1 28.04.2027 -
Bradley Locko Stade Brestois Aktiv 132 / 132 40% 2 26.04.2027 -
Leif Davis Ipswich Town Aktiv 132 / 141 40% 2 26.04.2027 -
Tino Livramento Newcastle United Aktiv 161 / 151 40% 2 25.04.2027 -
Orkun Kökçü Besiktas Aktiv 140 / 153 40% 1 25.04.2027 -
David Ozoh Derby County Aktiv 124 / 125 40% 1 25.04.2027 -
Arnau Martínez Valencia Aktiv 147 / 150 40% 3 23.04.2027 -
Javi Guerra Valencia Aktiv 139 / 151 40% 1 23.04.2027 -
Renato Veiga Villarreal Aktiv 158 / 155 40% 2 22.04.2027 -
Keagan Tau Ajax Cape Town Aktiv 102 / 96 40% 3 22.04.2027 -
Senny Mayulu Paris Saint-Germain Aktiv 146 / 143 40% 3 21.04.2027 -
Tariq Lamptey Queens Park Rangers Aktiv 131 / 131 40% 1 21.04.2027 -
Gorka Carrera Real Sociedad Aktiv 118 / 123 40% 3 19.04.2027 -
Aaron Hickey Brentford Aktiv 139 / 151 40% 1 19.04.2027 -
Sascha Britschgi Padova Aktiv 114 / 133 40% 1 18.04.2027 -
Ryan Sessegnon Fulham Aktiv 142 / 147 40% 2 17.04.2027 -
Kasra Taheri Sepahan Aktiv 111 / 120 40% 1 16.04.2027 -
Chineme Chinonso Ikorodu City Aktiv 91 / 94 40% 1 15.04.2027 -
Rodrigo Villalba River Plate Aktiv 90 / 111 40% 1 15.04.2027 -
Juanlu Bournemouth Aktiv 152 / 152 40% 2 14.04.2027 -
Thomas Waddingham Portsmouth Aktiv 105 / 113 40% 1 13.04.2027 -
Jonás Luna Santa Clara Aktiv 112 / 116 40% 1 13.04.2027 -
Taras Mykhavko Dynamo Kyiv Aktiv 128 / 137 40% 1 12.04.2027 -
Jan Bürger Gillingham Aktiv 107 / 114 40% 3 11.04.2027 -
Ernie Weaver AFC Wimbledon Aktiv 104 / 117 40% 2 11.04.2027 -
Nazareno Kihm Ferro Carril Oeste Aktiv 111 / 125 40% 1 11.04.2027 -
Kevin Vazquez Cruz Azul Aktiv 131 / 134 40% 2 10.04.2027 -
Valentin Atangana Al-Ahli Aktiv 128 / 146 40% 1 09.04.2027 -
Ilaix Moriba Celta Aktiv 149 / 152 40% 1 08.04.2027 -
Shea Charles Southampton Aktiv 138 / 130 40% 1 07.04.2027 -
Aitor Paredes Athletic Bilbao Aktiv 157 / 155 40% 2 06.04.2027 -
Samuele di Benedetto Bari Aktiv 107 / 113 40% 1 06.04.2027 -
Rayan Bournemouth Aktiv 137 / 141 40% 1 06.04.2027 -
Lorenzo De Leo Renate Aktiv 97 / 107 40% 1 06.04.2027 -
Ibrahim Maza Bayer Leverkusen Aktiv 148 / 150 40% 2 04.04.2027 -
Louis Leroux FC Nantes Aktiv 121 / 123 40% 2 04.04.2027 -
Tiago Santos LOSC Lille Aktiv 143 / 142 40% 1 04.04.2027 -
Emirhan Başyiğit Sivasspor Aktiv 105 / 111 40% 1 04.04.2027 -
Logan Costa Villarreal Aktiv 151 / 144 40% 2 01.04.2027 -
Mattéo Guendouzi Fenerbahce Aktiv 145 / 145 40% 1 31.03.2027 -
Nuno Tavares Lazio Aktiv 151 / 150 40% 2 30.03.2027 -
Percy Jali Free State Stars Aktiv 99 / 97 40% 3 28.03.2027 -
Dani Vivian Athletic Bilbao Aktiv 156 / 158 40% 1 28.03.2027 -
Yussif Saidu Zaragoza Aktiv 130 / 129 40% 1 28.03.2027 -
Lewis Ferguson Bologna Aktiv 143 / 138 40% 1 24.03.2027 -
Martim Cunha Porto Aktiv 99 / 106 40% 1 24.03.2027 -
Michael Kayode Brentford Aktiv 142 / 145 40% 1 23.03.2027 -
Boubacar Kamara Aston Villa Aktiv 167 / 164 40% 1 23.03.2027 -
Noah Nartey Olympique Lyonnais Aktiv 126 / 138 40% 1 23.03.2027 -
Jack Hinshelwood Brighton Aktiv 138 / 143 40% 1 23.03.2027 -
Alexsandro Ribeiro LOSC Lille Aktiv 152 / 142 40% 1 22.03.2027 -
Borna Knezović Casarano Aktiv 103 / 103 40% 1 22.03.2027 -
Jofre Torrents Ajax Aktiv 124 / 127 40% 3 17.03.2027 -
Dmitry Pestryakov Dinamo Moscow Aktiv 117 / 108 40% 1 17.03.2027 -
Pape Diong Westerlo Aktiv 117 / 125 40% 1 16.03.2027 -
Cemran Dansin Orlando Pirates Aktiv 103 / 125 40% 1 14.03.2027 -
Sayed Abu Farchi Maccabi Tel Aviv Aktiv 115 / 112 40% 1 10.03.2027 -
Jovan Milošević Braga Aktiv 121 / 117 40% 1 10.03.2027 -
Matvey Kislyak CSKA Moscow Aktiv 137 / 147 40% 1 09.03.2027 -
Tiago Freitas Benfica Aktiv 104 / 119 40% 1 09.03.2027 -
Dom Ballard Leyton Orient Aktiv 117 / 121 40% 3 08.03.2027 -
Endrick Real Madrid Aktiv 146 / 156 40% 2 08.03.2027 -
Nordan Mukiele Stade Rennais Aktiv 98 / 96 40% 1 03.03.2027 -
Lévy Néne FC Nordsjaelland Aktiv 107 / 125 40% 2 02.03.2027 -
Christos Mouzakitis Hull City Aktiv 133 / 132 40% 1 02.03.2027 -
Sidiki Chérif Coventry City Aktiv 124 / 127 40% 2 28.02.2027 -
Will Lankshear Middlesbrough Aktiv 123 / 128 40% 2 26.02.2027 -
Paco Esteban Virtus Entella Aktiv 98 / 102 40% 1 18.02.2027 -
Yojan Garcés America de Cali Aktiv 102 / 108 40% 1 16.02.2027 -
Renzo Machado Liverpool Montevideo Aktiv 101 / 102 40% 1 16.02.2027 -
Rocco Vata Watford Aktiv 120 / 124 40% 1 14.02.2027 -
Iwan Morgan Grimsby Town Aktiv 113 / 105 40% 1 01.02.2027 -
Rubén Sobrino Cultural Leonesa Aktiv 128 / 116 72% 1 25.01.2027 -
Lucas Bergvall Tottenham Aktiv 141 / 148 40% 1 25.01.2027 -
Dango Ouattara Brentford Aktiv 142 / 154 40% 1 31.12.2026 -
Felipe Parra Envigado Aktiv 130 / 129 40% 5 28.12.2026 -
Reda Khadra Qarabag Aktiv 135 / 116 40% 1 27.12.2026 -
Nicolás Sumavil Platense Aktiv 125 / 115 40% 4 26.12.2026 -
Jonmi Magunagoitia Eibar Aktiv 130 / 126 40% 2 24.12.2026 -
Erick Reyes Toluca Aktiv 146 / 129 40% 9 23.12.2026 -
Patrick Sequeira Casa Pia Aktiv 127 / 133 40% 1 23.12.2026 -
Radek Vítek Middlesbrough Aktiv 129 / 130 40% 1 22.12.2026 -
Brian Gutiérrez Guadalajara Aktiv 127 / 143 40% 3 20.12.2026 -
Brent Gabriel Zulte Waregem Aktiv 124 / 119 40% 2 18.12.2026 -
Guilherme Fernandes Córdoba Aktiv 136 / 134 40% 1 18.12.2026 -
Nicolás Castro Toluca Aktiv 124 / 117 40% 2 16.12.2026 -
Nicolas Jackson Aston Villa Aktiv 152 / 146 40% 1 16.12.2026 -
Fernando Tapia Club America Verhandlung 133 / 138 40% 3 15.12.2026 -
Hugo Souza Corinthians Aktiv 143 / 148 40% 1 15.12.2026 -
Santiago Silva CFR Cluj Aktiv 121 / 132 40% 2 14.12.2026 -
Pablo Santiago Castellón Aktiv 120 / 127 40% 1 14.12.2026 -
Grégoire Coudert Burnley Aktiv 123 / 124 40% 4 12.12.2026 -
Othmane Maamma Watford Aktiv 120 / 133 40% 1 12.12.2026 -
Oihan Sancet Athletic Bilbao Aktiv 161 / 158 40% 2 09.12.2026 -
Robin Roefs Sunderland Aktiv 140 / 148 40% 1 09.12.2026 -
César Araújo Tigres Aktiv 117 / 119 40% 1 09.12.2026 -
Alan Velasco Boca Juniors Aktiv 129 / 138 40% 1 04.12.2026 -
Jack Rudoni Coventry City Aktiv 128 / 128 40% 1 04.12.2026 -
Beau Reus Waasland-Beveren Aktiv 132 / 122 40% 1 01.12.2026 -
Mikel Jauregizar Athletic Bilbao Aktiv 154 / 165 40% 1 30.11.2026 -
Manuel Ospina Cortulua Aktiv 135 / 118 40% 1 30.11.2026 -
Tiago Palacios Estudiantes Aktiv 131 / 142 40% 2 29.11.2026 -
Yeremy Pino Crystal Palace Aktiv 152 / 143 40% 1 29.11.2026 -
Esteban Glellel Quilmes Aktiv 107 / 107 40% 2 27.11.2026 -
Michael Cooper Sheffield United Aktiv 127 / 134 40% 2 27.11.2026 -
Carlos Palacios Boca Juniors Aktiv 119 / 135 40% 2 26.11.2026 -
Brahim Díaz Real Madrid Aktiv 147 / 142 40% 1 26.11.2026 -
Mads Hermansen West Ham United Aktiv 135 / 138 40% 3 25.11.2026 -
Andrés Martín Racing Santander Aktiv 132 / 140 40% 2 25.11.2026 -
Kostantis Tzolakis Hull City Aktiv 133 / 140 40% 1 25.11.2026 -
Hugo Álvarez Celta Aktiv 140 / 146 40% 1 25.11.2026 -
Tyrhys Dolan Espanyol Aktiv 138 / 129 40% 1 23.11.2026 -
Raúl Rangel Sporting CP Aktiv 136 / 133 40% 3 22.11.2026 -
João Gonçalves Felgueiras Aktiv 113 / 113 40% 1 22.11.2026 -
Kevin Fulham Aktiv 147 / 149 40% 1 21.11.2026 -
Kevin Zenón Boca Juniors Aktiv 129 / 138 40% 1 19.11.2026 -
Jonathan Fischer FC Metz Aktiv 131 / 138 40% 2 17.11.2026 -
Lautaro Maldonado Instituto Aktiv 124 / 104 40% 1 17.11.2026 -
Tomás Durso Atlético Tucumán Aktiv 130 / 112 40% 1 16.11.2026 -
Aimar Osasuna Aktiv 140 / 150 40% 2 12.11.2026 -
Fidel Ambríz Monterrey Aktiv 126 / 138 40% 1 12.11.2026 -
Unai Marrero Real Sociedad Aktiv 129 / 116 40% 1 12.11.2026 -
Marcel Ruiz RC Lens Aktiv 142 / 136 40% 2 09.11.2026 -
Bryan Gil Girona Aktiv 151 / 153 40% 1 09.11.2026 -
James Trafford Leeds United Aktiv 133 / 135 40% 1 08.11.2026 -
Caoimhin Kelleher Brentford Aktiv 144 / 149 40% 1 07.11.2026 -
Félix Lemaréchal Club Brugge Aktiv 140 / 136 40% 1 06.11.2026 -
Amine Adli Bournemouth Aktiv 142 / 148 40% 1 06.11.2026 -
Lazar Carević Famalicao Aktiv 131 / 134 40% 1 03.11.2026 -
Ozziel Herrera Tigres Aktiv 125 / 126 40% 3 02.11.2026 -
Nico Williams Athletic Bilbao Aktiv 161 / 156 40% 2 02.11.2026 -
Paulinho Palmeiras Aktiv 138 / 152 40% 1 02.11.2026 -
Bryan González Guadalajara Aktiv 121 / 123 40% 1 31.10.2026 -
Alan Lescano Argentinos Juniors Aktiv 129 / 136 40% 1 30.10.2026 -
Iliman N'Diaye Everton Aktiv 156 / 156 40% 1 30.10.2026 -
Franco Ibarra Rosario Central Aktiv 137 / 119 40% 1 27.10.2026 -
Anatolii Trubin Juventus Aktiv 151 / 159 40% 1 25.10.2026 -
Lukas Jensen Millwall Aktiv 123 / 118 40% 2 23.10.2026 -
Luis Ingolotti Atlético Tucumán Aktiv 127 / 117 40% 2 22.10.2026 -
Leopold Wahlstedt Rosenborg Aktiv 123 / 115 40% 1 21.10.2026 -
Andriy Lunin Real Madrid Aktiv 160 / 144 40% 1 21.10.2026 -
Mikkel Damsgaard Brentford Aktiv 140 / 139 40% 1 21.10.2026 -
Tyler Adams Bournemouth Aktiv 158 / 153 40% 1 21.10.2026 -
Santiago González Tigre Aktiv 132 / 127 40% 1 19.10.2026 -
Raúl Moro Osasuna Aktiv 131 / 135 40% 1 19.10.2026 -
Matvey Safonov Paris Saint-Germain Aktiv 148 / 147 40% 1 11.10.2026 -
Tomoki Hayakawa Kashima Antlers Aktiv 131 / 123 40% 1 07.10.2026 -
Pablo Suárez Rentistas Aktiv 100 / 101 40% 1 14.09.2026 -
Dilan Godoy Vélez Aktiv 103 / 106 40% 1 14.09.2026 -
Jones El-Abdellaoui Celta Aktiv 121 / 131 40% 1 13.09.2026 -
Luis Palacios Tigres Aktiv 108 / 99 40% 1 11.09.2026 -
Bruno Hernández Cerro Largo Aktiv 86 / 88 40% 1 11.09.2026 -
Patrick Preciado Deportivo Pasto Aktiv 111 / 114 40% 1 10.09.2026 -
Elliot Anderson Manchester City Aktiv 150 / 145 40% 1 10.09.2026 -
Takehiro Tomiyasu Crystal Palace Aktiv 145 / 144 40% 1 09.09.2026 -
Rico Lewis Manchester City Aktiv 139 / 146 40% 1 07.09.2026 -
Ethan Ampadu Leeds United Aktiv 144 / 152 40% 1 07.09.2026 -
Léo Baptistão Almería Aktiv 128 / 135 72% 1 24.08.2026 Befürworten